sensor_id;sensor_type;location;lat;lon;timestamp;pressure;altitude;pressure_sealevel;temperature;humidity
6224;BME280;3145;42.726;23.342;2023-07-28T00:02:03;72013.00;;;-142.70;53.03
6224;BME280;3145;42.726;23.342;2023-07-28T00:04:30;72013.00;;;-142.70;52.52
6224;BME280;3145;42.726;23.342;2023-07-28T00:06:57;72008.97;;;-142.70;52.49
6224;BME280;3145;42.726;23.342;2023-07-28T00:09:24;72015.00;;;-142.70;52.04
6224;BME280;3145;42.726;23.342;2023-07-28T00:11:50;72021.06;;;-142.70;52.15
6224;BME280;3145;42.726;23.342;2023-07-28T00:14:17;72027.09;;;-142.70;52.03
6224;BME280;3145;42.726;23.342;2023-07-28T00:16:44;72031.13;;;-142.70;51.61
6224;BME280;3145;42.726;23.342;2023-07-28T00:19:12;72031.13;;;-142.70;51.94
6224;BME280;3145;42.726;23.342;2023-07-28T00:21:39;72065.38;;;-142.70;52.38
6224;BME280;3145;42.726;23.342;2023-07-28T00:24:05;72135.84;;;-142.70;54.31
6224;BME280;3145;42.726;23.342;2023-07-28T00:26:32;72133.84;;;-142.70;55.29
6224;BME280;3145;42.726;23.342;2023-07-28T00:28:59;72129.81;;;-142.70;55.78
6224;BME280;3145;42.726;23.342;2023-07-28T00:31:25;72121.75;;;-142.70;55.96
6224;BME280;3145;42.726;23.342;2023-07-28T00:33:52;72117.72;;;-142.70;55.72
6224;BME280;3145;42.726;23.342;2023-07-28T00:36:20;72117.72;;;-142.70;55.67
6224;BME280;3145;42.726;23.342;2023-07-28T00:38:47;72123.78;;;-142.70;55.32
6224;BME280;3145;42.726;23.342;2023-07-28T00:41:14;72139.88;;;-142.70;55.55
6224;BME280;3145;42.726;23.342;2023-07-28T00:43:40;72149.97;;;-142.70;56.39
6224;BME280;3145;42.726;23.342;2023-07-28T00:46:08;72164.06;;;-142.70;56.85
6224;BME280;3145;42.726;23.342;2023-07-28T00:48:35;72149.97;;;-142.70;56.91
6224;BME280;3145;42.726;23.342;2023-07-28T00:51:02;72145.94;;;-142.70;56.65
6224;BME280;3145;42.726;23.342;2023-07-28T00:53:30;72145.94;;;-142.70;55.80
6224;BME280;3145;42.726;23.342;2023-07-28T00:55:57;72178.16;;;-142.70;55.77
6224;BME280;3145;42.726;23.342;2023-07-28T00:58:24;72200.31;;;-142.70;56.35
6224;BME280;3145;42.726;23.342;2023-07-28T01:00:51;72218.44;;;-142.70;56.80
6224;BME280;3145;42.726;23.342;2023-07-28T01:03:18;72230.53;;;-142.70;56.92
6224;BME280;3145;42.726;23.342;2023-07-28T01:05:58;72228.53;;;-142.70;57.79
6224;BME280;3145;42.726;23.342;2023-07-28T01:08:34;72216.44;;;-142.70;57.56
6224;BME280;3145;42.726;23.342;2023-07-28T01:11:02;72222.47;;;-142.70;58.18
6224;BME280;3145;42.726;23.342;2023-07-28T01:13:28;72210.38;;;-142.70;57.99
6224;BME280;3145;42.726;23.342;2023-07-28T01:15:55;72208.38;;;-142.70;57.76
6224;BME280;3145;42.726;23.342;2023-07-28T01:18:23;72194.28;;;-142.70;57.37
6224;BME280;3145;42.726;23.342;2023-07-28T01:20:50;72188.22;;;-142.70;56.63
6224;BME280;3145;42.726;23.342;2023-07-28T01:23:32;72198.31;;;-142.70;56.36
6224;BME280;3145;42.726;23.342;2023-07-28T01:26:06;72222.47;;;-142.70;56.60
6224;BME280;3145;42.726;23.342;2023-07-28T01:28:36;72232.53;;;-142.70;57.38
6224;BME280;3145;42.726;23.342;2023-07-28T01:31:06;72238.59;;;-142.70;57.23
6224;BME280;3145;42.726;23.342;2023-07-28T01:33:33;72250.69;;;-142.70;57.35
6224;BME280;3145;42.726;23.342;2023-07-28T01:36:00;72272.84;;;-142.70;58.04
6224;BME280;3145;42.726;23.342;2023-07-28T01:38:28;72301.03;;;-142.70;59.28
6224;BME280;3145;42.726;23.342;2023-07-28T01:40:55;72303.06;;;-142.70;59.48
6224;BME280;3145;42.726;23.342;2023-07-28T01:43:21;72317.16;;;-142.70;59.53
6224;BME280;3145;42.726;23.342;2023-07-28T01:45:49;72337.28;;;-142.70;60.53
6224;BME280;3145;42.726;23.342;2023-07-28T01:48:16;72351.41;;;-142.70;60.67
6224;BME280;3145;42.726;23.342;2023-07-28T01:50:43;72379.59;;;-142.70;61.70
6224;BME280;3145;42.726;23.342;2023-07-28T01:53:10;72385.63;;;-142.70;62.05
6224;BME280;3145;42.726;23.342;2023-07-28T01:55:36;72371.53;;;-142.70;62.92
6224;BME280;3145;42.726;23.342;2023-07-28T01:58:03;72351.41;;;-142.70;62.83
6224;BME280;3145;42.726;23.342;2023-07-28T02:00:30;72329.22;;;-142.70;62.27
6224;BME280;3145;42.726;23.342;2023-07-28T02:02:58;72315.13;;;-142.70;61.76
6224;BME280;3145;42.726;23.342;2023-07-28T02:05:27;72303.06;;;-142.70;61.32
6224;BME280;3145;42.726;23.342;2023-07-28T02:07:54;72288.94;;;-142.70;60.71
6224;BME280;3145;42.726;23.342;2023-07-28T02:10:21;72288.94;;;-142.70;60.53
6224;BME280;3145;42.726;23.342;2023-07-28T02:12:48;72274.84;;;-142.70;60.31
6224;BME280;3145;42.726;23.342;2023-07-28T02:15:15;72266.78;;;-142.70;59.90
6224;BME280;3145;42.726;23.342;2023-07-28T02:17:42;72258.72;;;-142.70;59.78
6224;BME280;3145;42.726;23.342;2023-07-28T02:20:10;72254.72;;;-142.70;59.53
6224;BME280;3145;42.726;23.342;2023-07-28T02:22:38;72256.72;;;-142.70;59.52
6224;BME280;3145;42.726;23.342;2023-07-28T02:25:06;72266.78;;;-142.70;59.39
6224;BME280;3145;42.726;23.342;2023-07-28T02:27:32;72264.78;;;-142.70;59.46
6224;BME280;3145;42.726;23.342;2023-07-28T02:29:59;72262.75;;;-142.70;59.03
6224;BME280;3145;42.726;23.342;2023-07-28T02:32:26;72264.78;;;-142.70;59.17
6224;BME280;3145;42.726;23.342;2023-07-28T02:34:53;72246.66;;;-142.70;58.77
6224;BME280;3145;42.726;23.342;2023-07-28T02:37:22;72250.69;;;-142.70;58.73
6224;BME280;3145;42.726;23.342;2023-07-28T02:39:48;72246.66;;;-142.70;58.52
6224;BME280;3145;42.726;23.342;2023-07-28T02:42:15;72242.63;;;-142.70;58.55
6224;BME280;3145;42.726;23.342;2023-07-28T02:44:42;72236.56;;;-142.70;58.30
6224;BME280;3145;42.726;23.342;2023-07-28T02:47:09;72230.53;;;-142.70;58.17
6224;BME280;3145;42.726;23.342;2023-07-28T02:49:35;72242.63;;;-142.70;58.34
6224;BME280;3145;42.726;23.342;2023-07-28T02:52:02;72252.69;;;-142.70;58.22
6224;BME280;3145;42.726;23.342;2023-07-28T02:54:30;72256.72;;;-142.70;58.62
6224;BME280;3145;42.726;23.342;2023-07-28T02:56:57;72260.75;;;-142.70;58.49
6224;BME280;3145;42.726;23.342;2023-07-28T02:59:24;72274.84;;;-142.70;58.57
6224;BME280;3145;42.726;23.342;2023-07-28T03:01:50;72278.88;;;-142.70;58.88
6224;BME280;3145;42.726;23.342;2023-07-28T03:04:18;72276.88;;;-142.70;59.01
6224;BME280;3145;42.726;23.342;2023-07-28T03:06:45;72280.88;;;-142.70;59.26
6224;BME280;3145;42.726;23.342;2023-07-28T03:09:12;72286.94;;;-142.70;59.20
6224;BME280;3145;42.726;23.342;2023-07-28T03:11:41;72292.97;;;-142.70;58.89
6224;BME280;3145;42.726;23.342;2023-07-28T03:14:08;72311.09;;;-142.70;58.69
6224;BME280;3145;42.726;23.342;2023-07-28T03:16:35;72327.22;;;-142.70;59.33
6224;BME280;3145;42.726;23.342;2023-07-28T03:19:02;72321.19;;;-142.70;59.87
6224;BME280;3145;42.726;23.342;2023-07-28T03:21:29;72319.16;;;-142.70;59.82
6224;BME280;3145;42.726;23.342;2023-07-28T03:23:56;72311.09;;;-142.70;59.79
6224;BME280;3145;42.726;23.342;2023-07-28T03:26:23;72313.13;;;-142.70;59.96
6224;BME280;3145;42.726;23.342;2023-07-28T03:28:51;72321.19;;;-142.70;63.02
6224;BME280;3145;42.726;23.342;2023-07-28T03:31:18;72337.28;;;-142.70;63.27
6224;BME280;3145;42.726;23.342;2023-07-28T03:33:44;72331.25;;;-142.70;62.99
6224;BME280;3145;42.726;23.342;2023-07-28T03:36:11;72349.38;;;-142.70;63.41
6224;BME280;3145;42.726;23.342;2023-07-28T03:38:38;72351.41;;;-142.70;62.90
6224;BME280;3145;42.726;23.342;2023-07-28T03:41:04;72333.25;;;-142.70;62.92
6224;BME280;3145;42.726;23.342;2023-07-28T03:43:32;72321.19;;;-142.70;62.12
6224;BME280;3145;42.726;23.342;2023-07-28T03:46:00;72295.00;;;-142.70;60.88
6224;BME280;3145;42.726;23.342;2023-07-28T03:48:27;72262.75;;;-142.70;60.48
6224;BME280;3145;42.726;23.342;2023-07-28T03:50:54;72222.47;;;-142.70;59.18
6224;BME280;3145;42.726;23.342;2023-07-28T03:53:20;72198.31;;;-142.70;58.09
6224;BME280;3145;42.726;23.342;2023-07-28T03:55:47;72170.09;;;-142.70;56.84
6224;BME280;3145;42.726;23.342;2023-07-28T03:58:14;72158.03;;;-142.70;56.35
6224;BME280;3145;42.726;23.342;2023-07-28T04:00:41;72135.84;;;-142.70;55.64
6224;BME280;3145;42.726;23.342;2023-07-28T04:03:09;72107.66;;;-142.70;54.75
6224;BME280;3145;42.726;23.342;2023-07-28T04:05:36;72109.69;;;-142.70;54.67
6224;BME280;3145;42.726;23.342;2023-07-28T04:08:03;72097.59;;;-142.70;54.40
6224;BME280;3145;42.726;23.342;2023-07-28T04:10:30;72083.50;;;-142.70;53.72
6224;BME280;3145;42.726;23.342;2023-07-28T04:12:57;72049.25;;;-142.70;52.96
6224;BME280;3145;42.726;23.342;2023-07-28T04:15:23;72023.06;;;-142.70;51.60
6224;BME280;3145;42.726;23.342;2023-07-28T04:17:50;71980.75;;;-142.70;50.44
6224;BME280;3145;42.726;23.342;2023-07-28T04:20:18;71964.66;;;-142.70;49.68
6224;BME280;3145;42.726;23.342;2023-07-28T04:22:45;71930.41;;;-142.70;49.00
6224;BME280;3145;42.726;23.342;2023-07-28T04:25:12;71894.16;;;-142.70;48.04
6224;BME280;3145;42.726;23.342;2023-07-28T04:27:38;71855.88;;;-142.70;46.80
6224;BME280;3145;42.726;23.342;2023-07-28T04:30:06;71825.69;;;-142.70;46.23
6224;BME280;3145;42.726;23.342;2023-07-28T04:32:33;71803.53;;;-142.70;45.46
6224;BME280;3145;42.726;23.342;2023-07-28T04:34:59;71805.53;;;-142.70;44.83
6224;BME280;3145;42.726;23.342;2023-07-28T04:37:27;71799.50;;;-142.70;44.82
6224;BME280;3145;42.726;23.342;2023-07-28T04:39:54;71783.38;;;-142.70;43.82
6224;BME280;3145;42.726;23.342;2023-07-28T04:42:21;71739.06;;;-142.70;43.82
6224;BME280;3145;42.726;23.342;2023-07-28T04:44:47;71714.91;;;-142.70;43.26
6224;BME280;3145;42.726;23.342;2023-07-28T04:47:14;71678.66;;;-142.70;43.08
6224;BME280;3145;42.726;23.342;2023-07-28T04:49:41;71656.50;;;-142.70;42.06
6224;BME280;3145;42.726;23.342;2023-07-28T04:52:08;71622.25;;;-142.70;41.55
6224;BME280;3145;42.726;23.342;2023-07-28T04:54:36;71604.13;;;-142.70;40.17
6224;BME280;3145;42.726;23.342;2023-07-28T04:57:03;71612.19;;;-142.70;40.89
6224;BME280;3145;42.726;23.342;2023-07-28T04:59:30;71569.91;;;-142.70;40.48
6224;BME280;3145;42.726;23.342;2023-07-28T05:01:57;71523.56;;;-142.70;39.81
6224;BME280;3145;42.726;23.342;2023-07-28T05:04:23;71477.25;;;-142.70;39.30
6224;BME280;3145;42.726;23.342;2023-07-28T05:06:50;71465.16;;;-142.70;38.71
6224;BME280;3145;42.726;23.342;2023-07-28T05:09:17;71420.88;;;-142.70;38.21
6224;BME280;3145;42.726;23.342;2023-07-28T05:11:45;71380.59;;;-142.70;37.93
6224;BME280;3145;42.726;23.342;2023-07-28T05:14:11;71380.59;;;-142.70;37.41
6224;BME280;3145;42.726;23.342;2023-07-28T05:16:39;71390.66;;;-142.70;36.94
6224;BME280;3145;42.726;23.342;2023-07-28T05:19:06;71418.84;;;-142.70;38.01
6224;BME280;3145;42.726;23.342;2023-07-28T05:21:33;71451.06;;;-142.70;37.54
6224;BME280;3145;42.726;23.342;2023-07-28T05:24:00;71477.25;;;-142.70;38.14
6224;BME280;3145;42.726;23.342;2023-07-28T05:26:26;71469.19;;;-142.70;38.11
6224;BME280;3145;42.726;23.342;2023-07-28T05:28:54;71441.00;;;-142.70;38.59
6224;BME280;3145;42.726;23.342;2023-07-28T05:31:21;71436.97;;;-142.70;38.03
6224;BME280;3145;42.726;23.342;2023-07-28T05:33:48;71432.94;;;-142.70;38.58
6224;BME280;3145;42.726;23.342;2023-07-28T05:36:14;71400.72;;;-142.70;37.74
6224;BME280;3145;42.726;23.342;2023-07-28T05:38:41;71410.78;;;-142.70;37.67
6224;BME280;3145;42.726;23.342;2023-07-28T05:41:08;71465.16;;;-142.70;38.49
6224;BME280;3145;42.726;23.342;2023-07-28T05:43:34;71521.56;;;-142.70;39.16
6224;BME280;3145;42.726;23.342;2023-07-28T05:46:03;71642.41;;;-142.70;41.53
6224;BME280;3145;42.726;23.342;2023-07-28T05:48:29;71557.81;;;-142.70;41.31
6224;BME280;3145;42.726;23.342;2023-07-28T05:50:56;71537.66;;;-142.70;40.62
6224;BME280;3145;42.726;23.342;2023-07-28T05:53:23;71569.91;;;-142.70;41.18
6224;BME280;3145;42.726;23.342;2023-07-28T05:55:49;71513.50;;;-142.70;40.63
6224;BME280;3145;42.726;23.342;2023-07-28T05:58:16;71457.13;;;-142.70;40.77
6224;BME280;3145;42.726;23.342;2023-07-28T06:00:43;71477.25;;;-142.70;41.53
6224;BME280;3145;42.726;23.342;2023-07-28T06:03:11;71670.59;;;-142.70;44.17
6224;BME280;3145;42.726;23.342;2023-07-28T06:05:38;71598.09;;;-142.70;43.55
6224;BME280;3145;42.726;23.342;2023-07-28T06:08:06;71618.22;;;-142.70;43.92
6224;BME280;3145;42.726;23.342;2023-07-28T06:10:33;71646.44;;;-142.70;44.64
6224;BME280;3145;42.726;23.342;2023-07-28T06:13:00;71654.47;;;-142.70;44.53
6224;BME280;3145;42.726;23.342;2023-07-28T06:15:27;71640.38;;;-142.70;44.50
6224;BME280;3145;42.726;23.342;2023-07-28T06:17:53;71618.22;;;-142.70;43.83
6224;BME280;3145;42.726;23.342;2023-07-28T06:20:21;71670.59;;;-142.70;45.71
6224;BME280;3145;42.726;23.342;2023-07-28T06:22:48;71662.53;;;-142.70;44.50
6224;BME280;3145;42.726;23.342;2023-07-28T06:25:15;71602.13;;;-142.70;43.13
6224;BME280;3145;42.726;23.342;2023-07-28T06:27:42;71598.09;;;-142.70;42.58
6224;BME280;3145;42.726;23.342;2023-07-28T06:30:09;71581.97;;;-142.70;42.23
6224;BME280;3145;42.726;23.342;2023-07-28T06:32:36;71531.63;;;-142.70;42.03
6224;BME280;3145;42.726;23.342;2023-07-28T06:35:03;71501.44;;;-142.70;41.40
6224;BME280;3145;42.726;23.342;2023-07-28T06:37:32;71461.16;;;-142.70;41.51
6224;BME280;3145;42.726;23.342;2023-07-28T06:39:59;71378.56;;;-142.70;40.48
6224;BME280;3145;42.726;23.342;2023-07-28T06:42:25;71352.41;;;-142.70;39.13
6224;BME280;3145;42.726;23.342;2023-07-28T06:44:52;71360.44;;;-142.70;39.51
6224;BME280;3145;42.726;23.342;2023-07-28T06:47:19;71348.38;;;-142.70;39.06
6224;BME280;3145;42.726;23.342;2023-07-28T06:49:45;71287.97;;;-142.70;37.44
6224;BME280;3145;42.726;23.342;2023-07-28T06:52:12;71382.59;;;-142.70;38.98
6224;BME280;3145;42.726;23.342;2023-07-28T06:54:40;71344.34;;;-142.70;38.48
6224;BME280;3145;42.726;23.342;2023-07-28T06:57:07;71296.00;;;-142.70;37.80
6224;BME280;3145;42.726;23.342;2023-07-28T06:59:33;71259.75;;;-142.70;37.07
6224;BME280;3145;42.726;23.342;2023-07-28T07:02:00;71235.59;;;-142.70;35.92
6224;BME280;3145;42.726;23.342;2023-07-28T07:04:27;71243.66;;;-142.70;36.76
6224;BME280;3145;42.726;23.342;2023-07-28T07:06:54;71348.38;;;-142.70;37.43
6224;BME280;3145;42.726;23.342;2023-07-28T07:09:20;71332.25;;;-142.70;37.57
6224;BME280;3145;42.726;23.342;2023-07-28T07:11:48;71312.13;;;-142.70;37.17
6224;BME280;3145;42.726;23.342;2023-07-28T07:14:16;71279.91;;;-142.70;37.52
6224;BME280;3145;42.726;23.342;2023-07-28T07:16:42;71253.72;;;-142.70;36.61
6224;BME280;3145;42.726;23.342;2023-07-28T07:19:09;71267.81;;;-142.70;37.54
6224;BME280;3145;42.726;23.342;2023-07-28T07:21:36;71372.53;;;-142.70;37.33
6224;BME280;3145;42.726;23.342;2023-07-28T07:24:03;71332.25;;;-142.70;37.55
6224;BME280;3145;42.726;23.342;2023-07-28T07:26:30;71255.72;;;-142.70;36.89
6224;BME280;3145;42.726;23.342;2023-07-28T07:28:58;71273.84;;;-142.70;36.30
6224;BME280;3145;42.726;23.342;2023-07-28T07:31:25;71229.56;;;-142.70;36.81
6224;BME280;3145;42.726;23.342;2023-07-28T07:33:52;71211.44;;;-142.70;36.51
6224;BME280;3145;42.726;23.342;2023-07-28T07:36:19;71122.84;;;-142.70;36.40
6224;BME280;3145;42.726;23.342;2023-07-28T07:38:47;71104.72;;;-142.70;35.33
6224;BME280;3145;42.726;23.342;2023-07-28T07:41:14;71070.47;;;-142.70;34.61
6224;BME280;3145;42.726;23.342;2023-07-28T07:43:45;71114.78;;;-142.70;34.45
6224;BME280;3145;42.726;23.342;2023-07-28T07:46:14;71082.56;;;-142.70;34.48
6224;BME280;3145;42.726;23.342;2023-07-28T07:48:40;71026.19;;;-142.70;34.43
6224;BME280;3145;42.726;23.342;2023-07-28T07:51:07;71074.50;;;-142.70;34.27
6224;BME280;3145;42.726;23.342;2023-07-28T07:53:34;71082.56;;;-142.70;34.33
6224;BME280;3145;42.726;23.342;2023-07-28T07:56:02;71052.34;;;-142.70;33.60
6224;BME280;3145;42.726;23.342;2023-07-28T07:58:29;71010.06;;;-142.70;32.92
6224;BME280;3145;42.726;23.342;2023-07-28T08:00:56;70985.91;;;-142.70;32.49
6224;BME280;3145;42.726;23.342;2023-07-28T08:03:24;71062.41;;;-142.70;33.89
6224;BME280;3145;42.726;23.342;2023-07-28T08:05:52;71046.31;;;-142.70;33.27
6224;BME280;3145;42.726;23.342;2023-07-28T08:08:19;70997.97;;;-142.70;33.18
6224;BME280;3145;42.726;23.342;2023-07-28T08:10:46;70981.88;;;-142.70;33.25
6224;BME280;3145;42.726;23.342;2023-07-28T08:13:13;70997.97;;;-142.70;33.45
6224;BME280;3145;42.726;23.342;2023-07-28T08:15:40;71022.16;;;-142.70;34.08
6224;BME280;3145;42.726;23.342;2023-07-28T08:18:07;71042.28;;;-142.70;33.87
6224;BME280;3145;42.726;23.342;2023-07-28T08:20:35;70993.97;;;-142.70;33.97
6224;BME280;3145;42.726;23.342;2023-07-28T08:23:02;71038.25;;;-142.70;33.29
6224;BME280;3145;42.726;23.342;2023-07-28T08:25:28;71006.03;;;-142.70;34.65
6224;BME280;3145;42.726;23.342;2023-07-28T08:27:55;70951.66;;;-142.70;32.74
6224;BME280;3145;42.726;23.342;2023-07-28T08:30:22;70889.25;;;-142.70;32.56
6224;BME280;3145;42.726;23.342;2023-07-28T08:32:48;70828.84;;;-142.70;32.86
6224;BME280;3145;42.726;23.342;2023-07-28T08:35:15;70762.41;;;-142.70;32.01
6224;BME280;3145;42.726;23.342;2023-07-28T08:37:44;70724.16;;;-142.70;30.92
6224;BME280;3145;42.726;23.342;2023-07-28T08:40:11;70756.34;;;-142.70;31.03
6224;BME280;3145;42.726;23.342;2023-07-28T08:42:39;70788.56;;;-142.70;31.07
6224;BME280;3145;42.726;23.342;2023-07-28T08:45:07;70816.75;;;-142.70;30.78
6224;BME280;3145;42.726;23.342;2023-07-28T08:47:35;70863.06;;;-142.70;31.34
6224;BME280;3145;42.726;23.342;2023-07-28T08:50:02;70873.16;;;-142.70;31.86
6224;BME280;3145;42.726;23.342;2023-07-28T08:52:31;70800.66;;;-142.70;32.39
6224;BME280;3145;42.726;23.342;2023-07-28T08:54:59;70808.72;;;-142.70;31.08
6224;BME280;3145;42.726;23.342;2023-07-28T08:57:27;70796.63;;;-142.70;31.25
6224;BME280;3145;42.726;23.342;2023-07-28T08:59:54;70830.84;;;-142.70;31.62
6224;BME280;3145;42.726;23.342;2023-07-28T09:02:21;70836.91;;;-142.70;31.46
6224;BME280;3145;42.726;23.342;2023-07-28T09:04:49;70875.16;;;-142.70;31.24
6224;BME280;3145;42.726;23.342;2023-07-28T09:07:16;70889.25;;;-142.70;31.72
6224;BME280;3145;42.726;23.342;2023-07-28T09:09:43;70885.22;;;-142.70;32.03
6224;BME280;3145;42.726;23.342;2023-07-28T09:12:11;70836.91;;;-142.70;31.52
6224;BME280;3145;42.726;23.342;2023-07-28T09:14:38;70808.72;;;-142.70;31.88
6224;BME280;3145;42.726;23.342;2023-07-28T09:17:09;70740.25;;;-142.70;30.95
6224;BME280;3145;42.726;23.342;2023-07-28T09:19:49;70667.78;;;-142.70;30.55
6224;BME280;3145;42.726;23.342;2023-07-28T09:22:17;70659.72;;;-142.70;30.39
6224;BME280;3145;42.726;23.342;2023-07-28T09:24:44;70615.41;;;-142.70;30.53
6224;BME280;3145;42.726;23.342;2023-07-28T09:27:21;70625.50;;;-142.70;29.62
6224;BME280;3145;42.726;23.342;2023-07-28T09:29:49;70635.56;;;-142.70;31.05
6224;BME280;3145;42.726;23.342;2023-07-28T09:32:17;70593.28;;;-142.70;30.52
6224;BME280;3145;42.726;23.342;2023-07-28T09:35:05;70514.75;;;-142.70;30.01
6224;BME280;3145;42.726;23.342;2023-07-28T09:37:34;70440.25;;;-142.70;29.48
6224;BME280;3145;42.726;23.342;2023-07-28T09:40:03;70410.06;;;-142.70;28.01
6224;BME280;3145;42.726;23.342;2023-07-28T09:42:35;70381.88;;;-142.70;29.42
6224;BME280;3145;42.726;23.342;2023-07-28T09:45:02;70416.09;;;-142.70;28.56
6224;BME280;3145;42.726;23.342;2023-07-28T09:47:30;70426.16;;;-142.70;29.51
6224;BME280;3145;42.726;23.342;2023-07-28T09:50:02;70395.97;;;-142.70;29.15
6224;BME280;3145;42.726;23.342;2023-07-28T09:52:31;70369.81;;;-142.70;28.80
6224;BME280;3145;42.726;23.342;2023-07-28T09:55:00;70303.38;;;-142.70;29.23
6224;BME280;3145;42.726;23.342;2023-07-28T09:57:36;70279.19;;;-142.70;27.54
6224;BME280;3145;42.726;23.342;2023-07-28T10:00:06;70281.22;;;-142.70;28.47
6224;BME280;3145;42.726;23.342;2023-07-28T10:02:34;70263.09;;;-142.70;27.90
6224;BME280;3145;42.726;23.342;2023-07-28T10:05:02;70240.94;;;-142.70;28.03
6224;BME280;3145;42.726;23.342;2023-07-28T10:07:30;70257.06;;;-142.70;27.30
6224;BME280;3145;42.726;23.342;2023-07-28T10:09:57;70212.78;;;-142.70;27.20
6224;BME280;3145;42.726;23.342;2023-07-28T10:12:25;70184.59;;;-142.70;26.76
6224;BME280;3145;42.726;23.342;2023-07-28T10:15:01;70267.13;;;-142.70;26.85
6224;BME280;3145;42.726;23.342;2023-07-28T10:17:31;70313.44;;;-142.70;27.22
6224;BME280;3145;42.726;23.342;2023-07-28T10:19:59;70307.38;;;-142.70;28.25
6224;BME280;3145;42.726;23.342;2023-07-28T10:22:26;70259.06;;;-142.70;27.71
6224;BME280;3145;42.726;23.342;2023-07-28T10:24:54;70208.75;;;-142.70;27.60
6224;BME280;3145;42.726;23.342;2023-07-28T10:27:32;70188.63;;;-142.70;27.63
6224;BME280;3145;42.726;23.342;2023-07-28T10:30:04;70168.47;;;-142.70;27.59
6224;BME280;3145;42.726;23.342;2023-07-28T10:32:37;70148.34;;;-142.70;26.86
6224;BME280;3145;42.726;23.342;2023-07-28T10:35:07;70096.00;;;-142.70;27.05
6224;BME280;3145;42.726;23.342;2023-07-28T10:37:35;70108.09;;;-142.70;26.81
6224;BME280;3145;42.726;23.342;2023-07-28T10:40:24;70071.84;;;-142.70;26.54
6224;BME280;3145;42.726;23.342;2023-07-28T10:42:53;70033.59;;;-142.70;26.39
6224;BME280;3145;42.726;23.342;2023-07-28T10:45:23;70007.44;;;-142.70;25.91
6224;BME280;3145;42.726;23.342;2023-07-28T10:47:51;70023.53;;;-142.70;25.84
6224;BME280;3145;42.726;23.342;2023-07-28T10:50:18;70013.47;;;-142.70;26.14
6224;BME280;3145;42.726;23.342;2023-07-28T10:52:46;70059.78;;;-142.70;25.37
6224;BME280;3145;42.726;23.342;2023-07-28T10:55:13;70015.50;;;-142.70;26.76
6224;BME280;3145;42.726;23.342;2023-07-28T10:57:41;69987.31;;;-142.70;26.06
6224;BME280;3145;42.726;23.342;2023-07-28T11:00:10;70073.88;;;-142.70;26.38
6224;BME280;3145;42.726;23.342;2023-07-28T11:02:41;70063.81;;;-142.70;26.29
6224;BME280;3145;42.726;23.342;2023-07-28T11:05:13;70073.88;;;-142.70;26.15
6224;BME280;3145;42.726;23.342;2023-07-28T11:07:41;70071.84;;;-142.70;25.39
6224;BME280;3145;42.726;23.342;2023-07-28T11:10:09;70069.84;;;-142.70;26.17
6224;BME280;3145;42.726;23.342;2023-07-28T11:12:39;70083.94;;;-142.70;26.00
6224;BME280;3145;42.726;23.342;2023-07-28T11:15:09;70031.59;;;-142.70;26.61
6224;BME280;3145;42.726;23.342;2023-07-28T11:17:37;69975.22;;;-142.70;25.76
6224;BME280;3145;42.726;23.342;2023-07-28T11:20:14;69979.25;;;-142.70;25.87
6224;BME280;3145;42.726;23.342;2023-07-28T11:22:42;69959.13;;;-142.70;25.74
6224;BME280;3145;42.726;23.342;2023-07-28T11:25:08;69943.03;;;-142.70;25.87
6224;BME280;3145;42.726;23.342;2023-07-28T11:27:36;69997.38;;;-142.70;25.38
6224;BME280;3145;42.726;23.342;2023-07-28T11:30:03;69975.22;;;-142.70;26.24
6224;BME280;3145;42.726;23.342;2023-07-28T11:32:30;69987.31;;;-142.70;26.37
6224;BME280;3145;42.726;23.342;2023-07-28T11:35:03;69947.03;;;-142.70;25.77
6224;BME280;3145;42.726;23.342;2023-07-28T11:37:32;69943.03;;;-142.70;25.85
6224;BME280;3145;42.726;23.342;2023-07-28T11:40:00;69963.16;;;-142.70;25.43
6224;BME280;3145;42.726;23.342;2023-07-28T11:42:27;69963.16;;;-142.70;25.31
6224;BME280;3145;42.726;23.342;2023-07-28T11:44:55;70015.50;;;-142.70;26.29
6224;BME280;3145;42.726;23.342;2023-07-28T11:47:22;70031.59;;;-142.70;25.74
6224;BME280;3145;42.726;23.342;2023-07-28T11:49:49;70132.25;;;-142.70;26.48
6224;BME280;3145;42.726;23.342;2023-07-28T11:52:16;70120.16;;;-142.70;26.77
6224;BME280;3145;42.726;23.342;2023-07-28T11:54:45;70108.09;;;-142.70;27.13
6224;BME280;3145;42.726;23.342;2023-07-28T11:57:12;70116.13;;;-142.70;26.93
6224;BME280;3145;42.726;23.342;2023-07-28T11:59:39;70079.91;;;-142.70;27.20
6224;BME280;3145;42.726;23.342;2023-07-28T12:02:07;70075.88;;;-142.70;26.39
6224;BME280;3145;42.726;23.342;2023-07-28T12:04:36;70033.59;;;-142.70;26.17
6224;BME280;3145;42.726;23.342;2023-07-28T12:07:04;69975.22;;;-142.70;26.14
6224;BME280;3145;42.726;23.342;2023-07-28T12:09:32;69918.88;;;-142.70;25.77
6224;BME280;3145;42.726;23.342;2023-07-28T12:12:00;69912.81;;;-142.70;25.37
6224;BME280;3145;42.726;23.342;2023-07-28T12:14:31;69902.75;;;-142.70;25.43
6224;BME280;3145;42.726;23.342;2023-07-28T12:16:59;69959.13;;;-142.70;25.86
6224;BME280;3145;42.726;23.342;2023-07-28T12:19:26;69912.81;;;-142.70;25.85
6224;BME280;3145;42.726;23.342;2023-07-28T12:21:53;69898.72;;;-142.70;25.90
6224;BME280;3145;42.726;23.342;2023-07-28T12:24:19;69894.72;;;-142.70;25.74
6224;BME280;3145;42.726;23.342;2023-07-28T12:26:46;69900.75;;;-142.70;24.99
6224;BME280;3145;42.726;23.342;2023-07-28T12:29:15;69874.56;;;-142.70;25.52
6224;BME280;3145;42.726;23.342;2023-07-28T12:31:42;69906.78;;;-142.70;24.89
6224;BME280;3145;42.726;23.342;2023-07-28T12:34:10;69898.72;;;-142.70;24.84
6224;BME280;3145;42.726;23.342;2023-07-28T12:36:36;69858.47;;;-142.70;25.57
6224;BME280;3145;42.726;23.342;2023-07-28T12:39:03;69922.88;;;-142.70;25.26
6224;BME280;3145;42.726;23.342;2023-07-28T12:41:31;69876.59;;;-142.70;26.22
6224;BME280;3145;42.726;23.342;2023-07-28T12:43:58;69846.41;;;-142.70;25.32
6224;BME280;3145;42.726;23.342;2023-07-28T12:46:26;69810.16;;;-142.70;24.65
6224;BME280;3145;42.726;23.342;2023-07-28T12:48:52;69826.28;;;-142.70;25.88
6224;BME280;3145;42.726;23.342;2023-07-28T12:51:19;69788.03;;;-142.70;25.11
6224;BME280;3145;42.726;23.342;2023-07-28T12:53:46;69816.19;;;-142.70;24.99